createdAt,value
2023-02-08T00:01:16.438Z,6.75
2023-02-08T00:03:44.928Z,7.50
2023-02-08T00:06:14.308Z,5.00
2023-02-08T00:08:42.890Z,5.00
2023-02-08T00:11:12.339Z,8.50
2023-02-08T00:13:42.179Z,3.33
2023-02-08T00:16:12.512Z,6.50
2023-02-08T00:18:41.282Z,5.67
2023-02-08T00:21:15.642Z,7.00
2023-02-08T00:23:44.120Z,6.00
2023-02-08T00:26:12.405Z,6.00
2023-02-08T00:28:40.699Z,7.00
2023-02-08T00:31:09.063Z,8.75
2023-02-08T00:33:37.404Z,5.67
2023-02-08T00:36:07.610Z,4.33
2023-02-08T00:38:36.293Z,8.50
2023-02-08T00:41:05.314Z,6.00
2023-02-08T00:43:33.944Z,6.50
2023-02-08T00:46:02.405Z,7.00
2023-02-08T00:48:31.883Z,7.00
2023-02-08T00:51:04.325Z,5.67
2023-02-08T00:53:39.144Z,5.67
2023-02-08T00:56:08.882Z,8.00
2023-02-08T00:58:37.342Z,5.00
2023-02-08T01:01:06.638Z,5.00
2023-02-08T01:03:36.936Z,5.50
2023-02-08T01:06:07.680Z,8.25
2023-02-08T01:08:36.246Z,5.75
2023-02-08T01:11:10.180Z,6.00
2023-02-08T01:13:38.594Z,5.50
2023-02-08T01:16:21.955Z,5.50
2023-02-08T01:18:52.140Z,7.00
2023-02-08T01:21:23.089Z,6.00
2023-02-08T01:23:52.052Z,6.00
2023-02-08T01:26:21.109Z,6.50
2023-02-08T01:28:50.501Z,5.33
2023-02-08T01:31:21.702Z,5.33
2023-02-08T01:33:50.560Z,6.00
2023-02-08T01:36:19.417Z,5.33
2023-02-08T01:38:48.058Z,6.33
2023-02-08T01:41:28.300Z,5.00
2023-02-08T01:44:46.871Z,5.50
2023-02-08T01:47:15.160Z,3.33
2023-02-08T01:49:43.847Z,7.00
2023-02-08T01:52:16.883Z,5.00
2023-02-08T01:54:52.459Z,4.00
2023-02-08T01:57:21.615Z,6.00
2023-02-08T01:59:56.921Z,7.00
2023-02-08T02:02:26.010Z,7.00
2023-02-08T02:04:54.555Z,5.50
2023-02-08T02:07:27.061Z,7.00
2023-02-08T02:10:10.521Z,6.00
2023-02-08T02:12:39.590Z,4.75
2023-02-08T02:15:09.668Z,4.67
2023-02-08T02:17:38.829Z,4.33
2023-02-08T02:20:44.793Z,5.50
2023-02-08T02:23:46.853Z,6.00
2023-02-08T02:26:45.842Z,6.00
2023-02-08T02:29:16.611Z,4.00
2023-02-08T02:32:01.934Z,6.25
2023-02-08T02:34:57.355Z,5.00
2023-02-08T02:38:07.621Z,5.50
2023-02-08T02:40:35.973Z,5.00
2023-02-08T02:43:36.053Z,4.00
2023-02-08T02:46:04.366Z,5.75
2023-02-08T02:48:52.230Z,6.00
2023-02-08T02:51:27.700Z,5.33
2023-02-08T02:54:03.532Z,5.00
2023-02-08T02:56:36.483Z,6.00
2023-02-08T02:59:06.936Z,6.25
2023-02-08T03:01:35.865Z,4.75
2023-02-08T03:04:18.640Z,6.00
2023-02-08T03:07:14.564Z,5.00
2023-02-08T03:09:52.516Z,7.00
2023-02-08T03:12:48.687Z,5.50
2023-02-08T03:15:16.922Z,5.33
2023-02-08T03:18:15.491Z,4.33
2023-02-08T03:20:56.511Z,5.00
2023-02-08T03:24:02.785Z,6.75
2023-02-08T03:26:33.642Z,8.00
2023-02-08T03:29:46.407Z,5.75
2023-02-08T03:32:22.573Z,5.75
2023-02-08T03:35:08.096Z,7.67
2023-02-08T03:37:37.768Z,6.00
2023-02-08T03:40:18.994Z,5.00
2023-02-08T03:42:47.794Z,5.67
2023-02-08T03:45:20.559Z,4.00
2023-02-08T03:47:50.274Z,6.67
2023-02-08T03:50:20.672Z,3.67
2023-02-08T03:52:49.761Z,4.00
2023-02-08T03:55:25.449Z,7.00
2023-02-08T03:57:57.753Z,5.00
2023-02-08T04:00:26.239Z,6.50
2023-02-08T04:03:00.107Z,7.00
2023-02-08T04:05:29.063Z,4.50
2023-02-08T04:07:57.389Z,5.00
2023-02-08T04:10:25.623Z,5.50
2023-02-08T04:12:53.784Z,6.00
2023-02-08T04:15:22.338Z,4.00
2023-02-08T04:17:50.659Z,4.00
2023-02-08T04:20:18.983Z,6.00
2023-02-08T04:22:47.198Z,4.67
2023-02-08T04:25:15.764Z,4.00
2023-02-08T04:27:44.018Z,3.75
2023-02-08T04:30:12.795Z,4.25
2023-02-08T04:32:41.099Z,3.25
2023-02-08T04:35:09.382Z,4.00
2023-02-08T04:37:37.620Z,3.00
2023-02-08T04:40:06.065Z,3.67
2023-02-08T04:42:35.494Z,5.00
2023-02-08T04:45:04.062Z,5.33
2023-02-08T04:47:32.383Z,5.75
2023-02-08T04:50:00.584Z,4.33
2023-02-08T04:52:28.878Z,4.00
2023-02-08T04:54:57.059Z,0.00
2023-02-08T04:57:25.327Z,4.00
2023-02-08T04:59:53.587Z,3.00
2023-02-08T05:02:21.749Z,5.33
2023-02-08T05:04:49.981Z,4.00
2023-02-08T05:07:18.383Z,3.67
2023-02-08T05:09:46.557Z,3.00
2023-02-08T05:12:14.795Z,4.75
2023-02-08T05:14:43.031Z,6.00
2023-02-08T05:17:11.379Z,3.00
2023-02-08T05:19:39.554Z,5.25
2023-02-08T05:22:07.824Z,4.00
2023-02-08T05:24:36.004Z,5.50
2023-02-08T05:27:04.309Z,5.00
2023-02-08T05:29:32.582Z,4.25
2023-02-08T05:32:00.852Z,7.75
2023-02-08T05:34:29.172Z,6.00
2023-02-08T05:36:57.401Z,5.75
2023-02-08T05:39:25.722Z,6.33
2023-02-08T05:41:53.969Z,4.00
2023-02-08T05:44:22.182Z,3.00
2023-02-08T05:46:50.520Z,3.50
2023-02-08T05:49:19.090Z,5.50
2023-02-08T05:51:47.335Z,3.50
2023-02-08T05:54:15.533Z,5.67
2023-02-08T05:56:44.314Z,4.00
2023-02-08T05:59:12.554Z,3.50
2023-02-08T06:01:40.796Z,4.25
2023-02-08T06:04:09.152Z,4.00
2023-02-08T06:06:37.420Z,5.67
2023-02-08T06:09:05.593Z,5.33
2023-02-08T06:11:34.280Z,4.67
2023-02-08T06:14:03.496Z,5.67
2023-02-08T06:16:31.752Z,6.50
2023-02-08T06:18:59.992Z,5.00
2023-02-08T06:21:28.713Z,6.33
2023-02-08T06:23:56.931Z,5.50
2023-02-08T06:26:25.097Z,6.67
2023-02-08T06:28:53.334Z,6.25
2023-02-08T06:31:21.574Z,4.75
2023-02-08T06:33:49.844Z,5.33
2023-02-08T06:36:18.064Z,4.33
2023-02-08T06:38:46.352Z,4.50
2023-02-08T06:41:14.601Z,4.00
2023-02-08T06:43:42.860Z,5.75
2023-02-08T06:46:11.233Z,2.75
2023-02-08T06:48:39.463Z,5.25
2023-02-08T06:51:07.771Z,4.50
2023-02-08T06:53:35.937Z,5.50
2023-02-08T06:56:04.328Z,6.00
2023-02-08T06:58:32.570Z,5.50
2023-02-08T07:01:00.875Z,2.00
2023-02-08T07:03:29.156Z,4.25
2023-02-08T07:06:05.808Z,5.00
2023-02-08T07:08:34.668Z,3.00
2023-02-08T07:11:08.105Z,4.67
2023-02-08T07:13:37.075Z,6.75
2023-02-08T07:16:06.394Z,7.00
2023-02-08T07:18:35.162Z,5.50
2023-02-08T07:21:04.068Z,8.00
2023-02-08T07:23:32.464Z,6.00
2023-02-08T07:26:09.093Z,7.00
2023-02-08T07:28:37.540Z,9.50
2023-02-08T07:31:10.427Z,5.50
2023-02-08T07:33:39.098Z,7.25
2023-02-08T07:36:08.298Z,8.50
2023-02-08T07:38:37.519Z,9.00
2023-02-08T07:41:08.552Z,6.00
2023-02-08T07:43:38.551Z,8.67
2023-02-08T07:46:12.174Z,5.50
2023-02-08T07:48:40.624Z,5.00
2023-02-08T07:51:10.331Z,6.50
2023-02-08T07:53:39.210Z,9.75
2023-02-08T07:56:08.063Z,7.75
2023-02-08T07:58:37.009Z,7.50
2023-02-08T08:01:20.937Z,10.00
2023-02-08T08:03:51.685Z,8.00
2023-02-08T08:06:20.986Z,8.33
2023-02-08T08:08:49.755Z,6.00
2023-02-08T08:11:19.172Z,9.00
2023-02-08T08:13:47.480Z,6.00
2023-02-08T08:16:15.872Z,8.50
2023-02-08T08:18:44.236Z,8.33
2023-02-08T08:21:12.949Z,7.75
2023-02-08T08:23:41.250Z,8.25
2023-02-08T08:26:15.084Z,10.00
2023-02-08T08:28:43.812Z,9.00
2023-02-08T08:31:14.221Z,8.00
2023-02-08T08:33:42.615Z,8.33
2023-02-08T08:36:10.916Z,9.33
2023-02-08T08:38:39.566Z,7.00
2023-02-08T08:41:12.956Z,8.75
2023-02-08T08:43:41.237Z,10.00
2023-02-08T08:46:10.146Z,9.75
2023-02-08T09:42:50.661Z,10.00
2023-02-08T09:45:57.888Z,10.00
2023-02-08T09:48:38.627Z,8.00
2023-02-08T09:51:27.110Z,9.75
2023-02-08T09:54:07.902Z,10.00
2023-02-08T09:56:40.646Z,10.00
2023-02-08T09:59:30.399Z,7.50
2023-02-08T10:02:20.250Z,9.00
2023-02-08T10:04:59.753Z,8.50
2023-02-08T10:07:29.562Z,12.33
2023-02-08T10:10:04.485Z,10.00
2023-02-08T10:12:41.998Z,8.75
2023-02-08T10:15:20.364Z,8.75
2023-02-08T10:18:10.078Z,7.00
2023-02-08T10:21:01.284Z,9.00
2023-02-08T10:24:00.610Z,7.75
2023-02-08T10:26:42.529Z,6.50
2023-02-08T10:29:19.794Z,10.50
2023-02-08T10:32:12.103Z,11.00
2023-02-08T10:34:55.283Z,10.50
2023-02-08T10:37:30.504Z,10.33
2023-02-08T10:40:08.072Z,7.00
2023-02-08T10:54:53.374Z,10.50
2023-02-08T10:57:29.375Z,9.25
2023-02-08T11:00:22.722Z,9.00
2023-02-08T11:02:55.611Z,9.67
2023-02-08T11:05:26.970Z,8.67
2023-02-08T11:08:11.032Z,8.00
2023-02-08T11:10:40.303Z,7.00
2023-02-08T11:13:14.489Z,9.33
2023-02-08T11:15:54.333Z,11.67
2023-02-08T11:18:32.390Z,8.00
2023-02-08T11:21:03.760Z,11.67
2023-02-08T11:23:34.772Z,9.00
2023-02-08T11:26:23.800Z,11.67
2023-02-08T11:29:11.950Z,10.00
2023-02-08T11:32:01.450Z,9.00
2023-02-08T11:34:33.591Z,9.33
2023-02-08T11:37:18.154Z,16.00
2023-02-08T11:39:52.029Z,21.67
2023-02-08T11:42:24.485Z,17.00
2023-02-08T11:44:54.554Z,20.67
2023-02-08T11:47:31.218Z,15.67
2023-02-08T11:50:02.127Z,15.00
2023-02-08T11:52:43.012Z,16.00
2023-02-08T11:55:24.543Z,18.67
2023-02-08T11:58:13.378Z,15.00
2023-02-08T12:00:42.068Z,18.00
2023-02-08T12:03:16.076Z,18.00
2023-02-08T12:06:05.500Z,15.50
2023-02-08T12:08:59.650Z,22.50
2023-02-08T12:11:49.319Z,18.00
2023-02-08T12:14:42.584Z,14.00
2023-02-08T12:17:34.522Z,15.00
2023-02-08T12:20:33.552Z,15.75
2023-02-08T12:23:01.987Z,16.00
2023-02-08T12:25:53.502Z,16.00
2023-02-08T12:28:43.974Z,14.00
2023-02-08T12:31:49.574Z,20.25
2023-02-08T12:34:26.064Z,14.33
2023-02-08T12:37:42.427Z,22.50
2023-02-08T12:40:49.711Z,16.33
2023-02-08T12:43:36.117Z,22.50
2023-02-08T12:46:18.277Z,20.00
2023-02-08T12:49:24.487Z,21.50
2023-02-08T12:52:17.544Z,16.67
2023-02-08T12:54:58.417Z,19.67
2023-02-08T12:57:30.849Z,21.00
2023-02-08T13:00:16.473Z,17.50
2023-02-08T13:03:30.877Z,20.00
2023-02-08T13:06:05.115Z,22.00
2023-02-08T13:09:03.437Z,22.00
2023-02-08T13:11:47.273Z,16.33
2023-02-08T13:14:32.871Z,17.00
2023-02-08T13:17:21.816Z,21.00
2023-02-08T13:20:04.337Z,20.00
2023-02-08T13:22:38.971Z,20.50
2023-02-08T13:25:32.120Z,23.00
2023-02-08T13:28:05.523Z,18.00
2023-02-08T13:30:36.727Z,17.50
2023-02-08T13:33:16.851Z,14.33
2023-02-08T13:35:50.617Z,18.50
2023-02-08T13:38:35.186Z,21.50
2023-02-08T13:41:11.647Z,24.00
2023-02-08T13:43:49.618Z,18.50
2023-02-08T13:46:19.844Z,21.00
2023-02-08T13:48:57.692Z,24.00
2023-02-08T13:51:32.308Z,23.67
2023-02-08T13:54:01.140Z,19.50
2023-02-08T13:56:43.192Z,22.50
2023-02-08T13:59:34.394Z,21.00
2023-02-08T14:02:12.116Z,19.00
2023-02-08T14:04:45.567Z,22.33
2023-02-08T14:07:16.679Z,21.00
2023-02-08T14:09:45.135Z,19.00
2023-02-08T14:12:22.626Z,18.00
2023-02-08T14:15:15.275Z,21.33
2023-02-08T14:17:46.000Z,19.00
2023-02-08T14:20:29.474Z,18.00
2023-02-08T14:23:01.897Z,19.67
2023-02-08T14:25:43.792Z,14.00
2023-02-08T14:28:44.657Z,19.00
2023-02-08T14:31:14.778Z,15.00
2023-02-08T14:33:52.163Z,16.00
2023-02-08T14:36:49.929Z,17.33
2023-02-08T14:39:29.326Z,18.67
2023-02-08T14:42:05.727Z,18.67
2023-02-08T14:44:43.594Z,15.33
2023-02-08T14:47:32.290Z,18.00
2023-02-08T14:50:34.583Z,19.00
2023-02-08T14:53:12.260Z,17.33
2023-02-08T14:56:06.032Z,17.50
2023-02-08T14:58:42.712Z,19.67
2023-02-08T15:01:46.561Z,19.00
2023-02-08T15:04:18.588Z,17.67
2023-02-08T15:07:14.819Z,16.67
2023-02-08T15:09:45.453Z,17.33
2023-02-08T15:12:26.011Z,19.00
2023-02-08T15:14:55.841Z,17.67
2023-02-08T15:17:33.215Z,16.00
2023-02-08T15:20:04.977Z,16.00
2023-02-08T15:22:36.813Z,16.67
2023-02-08T15:25:35.630Z,15.00
2023-02-08T15:28:21.761Z,15.00
2023-02-08T15:31:00.258Z,15.00
2023-02-08T15:33:29.032Z,19.00
2023-02-08T15:36:05.893Z,14.33
2023-02-08T15:38:38.850Z,14.50
2023-02-08T15:41:10.763Z,15.33
2023-02-08T15:43:40.867Z,23.33
2023-02-08T15:46:26.689Z,25.50
2023-02-08T15:48:57.606Z,30.00
2023-02-08T15:51:27.673Z,28.67
2023-02-08T15:53:57.130Z,31.00
2023-02-08T15:56:39.472Z,25.00
2023-02-08T15:59:17.083Z,25.00
2023-02-08T16:01:48.745Z,29.00
2023-02-08T16:04:18.232Z,24.00
2023-02-08T16:06:51.280Z,30.00
2023-02-08T16:09:30.299Z,19.00
2023-02-08T16:12:02.169Z,29.33
2023-02-08T16:14:40.712Z,30.33
2023-02-08T16:17:39.410Z,22.00
2023-02-08T16:20:31.934Z,24.33
2023-02-08T16:23:05.886Z,27.67
2023-02-08T16:25:45.350Z,19.50
2023-02-08T16:28:29.108Z,29.00
2023-02-08T16:31:00.630Z,33.00
2023-02-08T16:33:30.914Z,48.00
2023-02-08T16:36:03.920Z,67.00
2023-02-08T16:38:34.509Z,110.50
2023-02-08T16:41:13.876Z,132.50
2023-02-08T16:43:48.171Z,96.00
2023-02-08T16:46:20.065Z,76.33
2023-02-08T16:48:50.363Z,70.67
2023-02-08T16:51:22.327Z,63.00
2023-02-08T16:53:53.600Z,65.50
2023-02-08T16:56:23.071Z,106.75
2023-02-08T16:58:51.557Z,61.33
2023-02-08T17:01:21.003Z,52.00
2023-02-08T17:03:50.700Z,56.00
2023-02-08T17:06:36.971Z,51.25
2023-02-08T17:09:07.190Z,50.67
2023-02-08T17:11:36.403Z,47.00
2023-02-08T17:14:08.248Z,48.00
2023-02-08T17:16:40.096Z,43.33
2023-02-08T17:19:17.161Z,47.00
2023-02-08T17:21:45.576Z,45.33
2023-02-08T17:24:14.182Z,45.50
2023-02-08T17:26:44.079Z,44.00
2023-02-08T17:29:13.704Z,47.33
2023-02-08T17:31:42.126Z,46.00
2023-02-08T17:34:10.748Z,46.00
2023-02-08T17:36:41.732Z,40.00
2023-02-08T17:39:11.329Z,45.00
2023-02-08T17:41:40.487Z,43.00
2023-02-08T17:44:08.871Z,42.67
2023-02-08T17:46:38.327Z,41.00
2023-02-08T17:49:07.062Z,40.00
2023-02-08T17:51:35.440Z,42.00
2023-02-08T17:54:05.574Z,42.33
2023-02-08T17:56:37.111Z,39.00
2023-02-08T17:59:05.873Z,39.00
2023-02-08T18:01:35.514Z,39.33
2023-02-08T18:04:04.509Z,36.67
2023-02-08T18:06:32.985Z,41.00
2023-02-08T18:09:01.775Z,36.33
2023-02-08T18:11:30.468Z,40.00
2023-02-08T18:13:59.872Z,36.67
2023-02-08T18:16:28.942Z,36.00
2023-02-08T18:18:59.608Z,41.67
2023-02-08T18:21:33.113Z,38.00
2023-02-08T18:24:03.132Z,38.67
2023-02-08T18:26:33.886Z,40.00
2023-02-08T18:29:02.939Z,39.00
2023-02-08T18:31:32.374Z,40.50
2023-02-08T18:34:01.854Z,35.33
2023-02-08T18:36:30.636Z,39.33
2023-02-08T18:38:59.011Z,40.67
2023-02-08T18:41:29.543Z,38.00
2023-02-08T18:43:58.957Z,38.00
2023-02-08T18:46:29.832Z,31.33
2023-02-08T18:48:58.571Z,37.00
2023-02-08T18:51:27.882Z,36.67
2023-02-08T18:53:56.351Z,36.50
2023-02-08T18:56:26.623Z,33.00
2023-02-08T18:58:58.230Z,37.00
2023-02-08T19:01:26.749Z,35.67
2023-02-08T19:03:55.296Z,37.00
2023-02-08T19:06:26.961Z,37.00
2023-02-08T19:08:56.972Z,38.00
2023-02-08T19:11:27.747Z,37.50
2023-02-08T19:13:57.617Z,33.00
2023-02-08T19:16:27.909Z,37.00
2023-02-08T19:19:02.569Z,32.50
2023-02-08T19:21:32.691Z,34.00
2023-02-08T19:24:02.347Z,32.33
2023-02-08T19:26:33.762Z,34.00
2023-02-08T19:29:03.764Z,33.33
2023-02-08T19:31:33.121Z,32.00
2023-02-08T19:34:03.297Z,31.33
2023-02-08T19:36:38.449Z,34.00
2023-02-08T19:39:09.299Z,33.00
2023-02-08T19:41:40.112Z,30.33
2023-02-08T19:44:10.019Z,33.00
2023-02-08T19:46:39.222Z,34.00
2023-02-08T19:49:08.025Z,34.00
2023-02-08T19:51:37.324Z,31.00
2023-02-08T19:54:08.703Z,33.33
2023-02-08T19:56:37.141Z,31.67
2023-02-08T19:59:07.576Z,32.00
2023-02-08T20:01:36.664Z,29.00
2023-02-08T20:04:06.176Z,33.33
2023-02-08T20:06:37.333Z,32.00
2023-02-08T20:09:07.065Z,32.00
2023-02-08T20:11:45.118Z,26.00
2023-02-08T20:14:23.981Z,33.33
2023-02-08T20:16:52.501Z,30.00
2023-02-08T20:19:21.369Z,31.50
2023-02-08T20:21:49.837Z,31.00
2023-02-08T20:24:18.301Z,27.33
2023-02-08T20:26:47.833Z,32.00
2023-02-08T20:29:17.002Z,28.67
2023-02-08T20:31:48.227Z,32.00
2023-02-08T20:34:19.008Z,27.33
2023-02-08T20:37:08.470Z,30.33
2023-02-08T20:39:37.470Z,27.67
2023-02-08T20:42:06.499Z,29.00
2023-02-08T20:44:35.132Z,29.00
2023-02-08T20:47:03.728Z,29.00
2023-02-08T20:49:32.702Z,26.00
2023-02-08T20:52:01.452Z,27.67
2023-02-08T20:54:30.212Z,24.33
2023-02-08T20:56:59.098Z,23.00
2023-02-08T20:59:27.464Z,30.00
2023-02-08T21:01:56.454Z,26.00
2023-02-08T21:04:25.250Z,27.00
2023-02-08T21:06:53.823Z,27.50
2023-02-08T21:09:22.618Z,30.33
2023-02-08T21:11:51.811Z,30.00
2023-02-08T21:14:21.842Z,25.67
2023-02-08T21:16:58.903Z,28.00
2023-02-08T21:19:29.234Z,24.00
2023-02-08T21:22:00.367Z,28.50
2023-02-08T21:24:28.972Z,27.33
2023-02-08T21:26:58.027Z,29.00
2023-02-08T21:29:26.531Z,26.00
2023-02-08T21:31:56.772Z,24.67
2023-02-08T21:34:25.442Z,30.67
2023-02-08T21:36:53.934Z,28.50
2023-02-08T21:39:23.647Z,26.00
2023-02-08T21:41:52.741Z,29.50
2023-02-08T21:44:21.316Z,24.00
2023-02-08T21:46:49.722Z,24.33
2023-02-08T21:49:36.927Z,26.00
2023-02-08T21:52:24.241Z,25.00
2023-02-08T21:54:53.895Z,24.50
2023-02-08T21:57:26.100Z,20.33
2023-02-08T21:59:57.878Z,28.50
2023-02-08T22:02:29.009Z,25.50
2023-02-08T22:05:01.401Z,26.00
2023-02-08T22:07:30.287Z,20.67
2023-02-08T22:09:58.568Z,22.00
2023-02-08T22:12:27.042Z,19.00
2023-02-08T22:14:55.524Z,25.00
2023-02-08T22:17:24.863Z,17.50
2023-02-08T22:19:53.204Z,21.00
2023-02-08T22:22:21.901Z,16.67
2023-02-08T22:24:50.271Z,23.50
2023-02-08T22:27:18.957Z,21.00
2023-02-08T22:29:47.445Z,22.67
2023-02-08T22:32:18.863Z,18.00
2023-02-08T22:34:47.986Z,21.33
2023-02-08T22:37:16.792Z,21.00
2023-02-08T22:39:45.165Z,21.00
2023-02-08T22:42:15.004Z,24.00
2023-02-08T22:44:44.629Z,20.67
2023-02-08T22:47:13.778Z,17.33
2023-02-08T22:49:42.463Z,15.00
2023-02-08T22:52:11.290Z,17.00
2023-02-08T22:54:39.635Z,23.00
2023-02-08T22:57:09.914Z,16.75
2023-02-08T22:59:39.334Z,20.33
2023-02-08T23:02:07.744Z,20.00
2023-02-08T23:04:39.298Z,20.00
2023-02-08T23:07:07.674Z,18.00
2023-02-08T23:09:36.997Z,18.00
2023-02-08T23:12:05.863Z,19.33
2023-02-08T23:14:34.445Z,16.00
2023-02-08T23:17:03.146Z,16.33
2023-02-08T23:19:31.641Z,17.67
2023-02-08T23:22:00.515Z,17.75
2023-02-08T23:24:28.884Z,21.00
2023-02-08T23:26:57.594Z,14.00
2023-02-08T23:29:26.258Z,20.33
2023-02-08T23:31:54.677Z,19.00
2023-02-08T23:34:23.324Z,18.50
2023-02-08T23:36:51.698Z,17.50
2023-02-08T23:39:20.290Z,11.00
2023-02-08T23:41:48.781Z,18.00
2023-02-08T23:44:17.250Z,17.00
2023-02-08T23:46:45.654Z,19.00
2023-02-08T23:49:14.124Z,18.00
2023-02-08T23:51:42.594Z,15.75
2023-02-08T23:54:11.086Z,15.00
2023-02-08T23:56:41.007Z,15.50
2023-02-08T23:59:11.123Z,17.00
